Time;durP1;ratioP1;P1;durP2;ratioP2;P2;SDS_P1;SDS_P2;PMS_P1;PMS_P2;Temp;Humidity;BMP_temperature;BMP_pressure;BME280_temperature;BME280_humidity;BME280_pressure;Samples;Min_cycle;Max_cycle;Signal;HPM_P1;HPM_P2
2021/10/23 00:00:13;;;;;;;3.70;1.00;;;8.00;99.90;;;;;;5036370;28;20057;-71
2021/10/23 00:02:40;;;;;;;2.65;0.90;;;8.00;99.90;;;;;;5035514;28;20102;-71
2021/10/23 00:05:08;;;;;;;5.65;1.23;;;8.00;99.90;;;;;;5035320;28;20099;-71
2021/10/23 00:07:35;;;;;;;3.67;1.38;;;8.00;99.90;;;;;;5035936;28;20052;-71
2021/10/23 00:10:02;;;;;;;5.13;1.38;;;8.00;99.90;;;;;;5036814;28;20057;-71
2021/10/23 00:12:31;;;;;;;7.65;1.15;;;8.00;99.90;;;;;;5034458;28;20053;-71
2021/10/23 00:14:58;;;;;;;4.10;1.00;;;8.00;99.90;;;;;;5035285;28;20060;-71
2021/10/23 00:17:25;;;;;;;6.60;1.45;;;8.10;99.90;;;;;;5035115;28;20138;-71
2021/10/23 00:19:52;;;;;;;3.35;1.10;;;8.00;99.90;;;;;;5034975;28;20053;-71
2021/10/23 00:22:19;;;;;;;2.17;1.20;;;8.10;99.90;;;;;;5034695;28;20071;-70
2021/10/23 00:24:46;;;;;;;4.80;1.20;;;8.10;99.90;;;;;;5034348;28;20049;-70
2021/10/23 00:27:13;;;;;;;7.05;1.23;;;8.10;99.90;;;;;;5035091;28;20053;-70
2021/10/23 00:29:42;;;;;;;4.20;1.58;;;8.10;99.90;;;;;;5034877;28;20053;-73
2021/10/23 00:32:09;;;;;;;3.08;1.15;;;8.10;99.90;;;;;;5035342;28;20057;-70
2021/10/23 00:34:36;;;;;;;3.15;1.20;;;8.00;99.90;;;;;;5035342;28;20131;-71
2021/10/23 00:37:03;;;;;;;6.95;1.30;;;8.00;99.90;;;;;;5036394;28;20092;-71
2021/10/23 00:39:30;;;;;;;5.57;1.85;;;7.90;99.90;;;;;;5037028;28;20053;-71
2021/10/23 00:41:57;;;;;;;7.88;1.35;;;7.90;99.90;;;;;;5039351;28;20497;-71
2021/10/23 00:44:31;;;;;;;6.53;1.63;;;8.00;99.90;;;;;;5038857;28;20094;-71
2021/10/23 00:47:04;;;;;;;5.93;1.88;;;7.90;99.90;;;;;;5039344;28;20106;-72
2021/10/23 00:49:32;;;;;;;4.22;1.50;;;7.80;99.90;;;;;;5039945;28;20049;-71
2021/10/23 00:52:00;;;;;;;3.83;1.42;;;7.80;99.90;;;;;;5039922;28;20046;-71
2021/10/23 00:54:27;;;;;;;8.88;1.52;;;7.80;99.90;;;;;;5039053;28;20433;-71
2021/10/23 00:56:55;;;;;;;5.18;1.15;;;7.80;99.90;;;;;;5038065;28;20049;-71
2021/10/23 00:59:22;;;;;;;4.60;1.25;;;7.90;99.90;;;;;;5038375;28;20049;-73
2021/10/23 01:01:50;;;;;;;7.15;1.42;;;7.90;99.90;;;;;;5038592;28;20053;-71
2021/10/23 01:04:21;;;;;;;6.20;1.52;;;7.90;99.90;;;;;;5038204;28;20092;-71
2021/10/23 01:06:48;;;;;;;5.47;1.65;;;7.90;99.90;;;;;;5038034;28;20568;-71
2021/10/23 01:09:16;;;;;;;4.55;1.30;;;7.80;99.90;;;;;;5038621;28;20576;-72
2021/10/23 01:11:44;;;;;;;6.07;1.48;;;7.70;99.90;;;;;;5037895;28;20448;-74
2021/10/23 01:14:13;;;;;;;8.30;1.40;;;7.70;99.90;;;;;;5038429;28;20045;-71
2021/10/23 01:16:41;;;;;;;6.72;1.42;;;7.60;99.90;;;;;;5037311;28;20052;-72
2021/10/23 01:19:10;;;;;;;6.18;1.48;;;7.60;99.90;;;;;;5037213;28;20051;-72
2021/10/23 01:21:39;;;;;;;4.45;1.65;;;7.40;99.90;;;;;;5037305;28;20056;-71
2021/10/23 01:24:07;;;;;;;7.07;1.67;;;7.40;99.90;;;;;;5038321;28;20064;-72
2021/10/23 01:26:35;;;;;;;5.07;1.45;;;7.30;99.90;;;;;;5037546;28;20395;-72
2021/10/23 01:29:02;;;;;;;7.00;1.90;;;7.20;99.90;;;;;;5038176;28;20089;-72
2021/10/23 01:31:30;;;;;;;6.00;1.70;;;7.20;99.90;;;;;;5038767;28;20106;-72
2021/10/23 01:33:57;;;;;;;4.35;1.42;;;7.10;99.90;;;;;;5040431;28;20049;-72
2021/10/23 01:36:24;;;;;;;4.93;1.58;;;7.00;99.90;;;;;;5039282;28;20045;-72
2021/10/23 01:38:52;;;;;;;6.05;2.13;;;6.90;99.90;;;;;;5039015;28;20057;-72
2021/10/23 01:41:19;;;;;;;9.57;1.92;;;6.90;99.90;;;;;;5038154;28;20053;-72
2021/10/23 01:43:46;;;;;;;5.60;2.33;;;6.80;99.90;;;;;;5038582;28;20749;-73
2021/10/23 01:46:13;;;;;;;9.80;1.65;;;6.70;99.90;;;;;;5038354;28;20072;-72
2021/10/23 01:48:40;;;;;;;8.82;1.77;;;6.60;99.90;;;;;;5039253;28;20081;-71
2021/10/23 01:51:07;;;;;;;6.05;2.00;;;6.60;99.90;;;;;;5039486;28;20056;-71
2021/10/23 01:53:35;;;;;;;6.18;1.83;;;6.50;99.90;;;;;;5038284;28;20060;-71
2021/10/23 01:56:04;;;;;;;7.68;1.85;;;6.50;99.90;;;;;;5038174;28;20079;-72
2021/10/23 01:58:31;;;;;;;7.47;1.80;;;6.60;99.90;;;;;;5038204;28;20060;-71
2021/10/23 02:00:58;;;;;;;7.20;1.58;;;6.50;99.90;;;;;;5038879;28;20106;-71
2021/10/23 02:03:25;;;;;;;9.65;2.17;;;6.50;99.90;;;;;;5039524;28;20410;-71
2021/10/23 02:05:52;;;;;;;7.80;1.75;;;6.50;99.90;;;;;;5039236;28;20123;-71
2021/10/23 02:08:19;;;;;;;5.95;1.60;;;6.40;99.90;;;;;;5038804;28;20335;-72
2021/10/23 02:10:46;;;;;;;6.90;1.55;;;6.40;99.90;;;;;;5039721;28;20102;-71
2021/10/23 02:13:15;;;;;;;4.10;1.50;;;6.50;99.90;;;;;;5038539;28;20049;-72
2021/10/23 02:15:42;;;;;;;7.47;1.90;;;6.40;99.90;;;;;;5037504;28;20057;-72
2021/10/23 02:18:09;;;;;;;8.73;2.05;;;6.40;99.90;;;;;;5039624;28;20052;-71
2021/10/23 02:20:36;;;;;;;6.50;1.65;;;6.50;99.90;;;;;;5037258;28;20044;-72
2021/10/23 02:23:04;;;;;;;6.22;1.70;;;6.60;99.90;;;;;;5038928;28;20145;-71
2021/10/23 02:25:31;;;;;;;5.40;1.80;;;6.80;99.90;;;;;;5037266;28;20136;-72
2021/10/23 02:27:58;;;;;;;5.80;1.60;;;6.90;99.90;;;;;;5039739;28;20472;-71
2021/10/23 02:30:26;;;;;;;5.72;2.00;;;6.90;99.90;;;;;;5036824;28;20103;-71
2021/10/23 02:32:53;;;;;;;5.50;1.90;;;7.00;99.90;;;;;;5036865;28;20049;-72
2021/10/23 02:35:21;;;;;;;6.38;1.88;;;7.00;99.90;;;;;;5035780;28;20060;-72
2021/10/23 02:37:48;;;;;;;6.82;2.20;;;7.10;99.90;;;;;;5036812;28;20055;-72
2021/10/23 02:40:15;;;;;;;7.55;2.40;;;7.10;99.90;;;;;;5037248;28;20174;-71
2021/10/23 02:42:42;;;;;;;10.73;3.20;;;7.20;99.90;;;;;;5038086;28;20060;-73
2021/10/23 02:45:10;;;;;;;7.40;3.28;;;7.30;99.90;;;;;;5037531;28;20084;-72
2021/10/23 02:47:39;;;;;;;9.25;3.45;;;7.30;99.90;;;;;;5036890;28;20057;-72
2021/10/23 02:50:06;;;;;;;12.48;3.55;;;7.30;99.90;;;;;;5038020;28;20080;-72
2021/10/23 02:52:34;;;;;;;7.43;3.53;;;7.30;99.90;;;;;;5036796;28;20798;-72
2021/10/23 02:55:01;;;;;;;10.30;5.00;;;7.30;99.90;;;;;;5037200;28;20418;-72
2021/10/23 02:57:28;;;;;;;11.93;4.80;;;7.30;99.90;;;;;;5037367;28;20571;-72
2021/10/23 02:59:55;;;;;;;10.35;4.45;;;7.40;99.90;;;;;;5038553;28;20118;-71
2021/10/23 03:02:22;;;;;;;10.52;4.63;;;7.40;99.90;;;;;;5036835;28;20114;-72
2021/10/23 03:04:51;;;;;;;11.70;4.57;;;7.50;99.90;;;;;;5038819;28;20049;-72
2021/10/23 03:07:18;;;;;;;11.77;4.25;;;7.50;99.90;;;;;;5037101;28;20057;-72
2021/10/23 03:09:45;;;;;;;14.48;4.30;;;7.60;99.90;;;;;;5036883;28;20045;-71
2021/10/23 03:12:12;;;;;;;11.88;5.30;;;7.60;99.90;;;;;;5036990;28;20102;-72
2021/10/23 03:14:39;;;;;;;14.68;5.30;;;7.60;99.90;;;;;;5037341;28;20045;-72
2021/10/23 03:17:05;;;;;;;9.02;4.97;;;7.60;99.90;;;;;;5037210;28;20060;-72
2021/10/23 03:19:32;;;;;;;15.30;5.28;;;7.70;99.90;;;;;;5036138;28;20053;-71
2021/10/23 03:22:01;;;;;;;15.82;6.07;;;7.70;99.90;;;;;;5035702;28;20086;-72
2021/10/23 03:24:28;;;;;;;16.15;5.60;;;7.70;99.90;;;;;;5036298;28;20053;-72
2021/10/23 03:26:55;;;;;;;11.23;5.78;;;7.70;99.90;;;;;;5036235;28;20115;-71
2021/10/23 03:29:22;;;;;;;16.85;5.30;;;7.80;99.90;;;;;;5036628;28;20056;-71
2021/10/23 03:31:49;;;;;;;12.20;5.63;;;7.80;99.90;;;;;;5034795;28;20087;-72
2021/10/23 03:34:16;;;;;;;16.05;5.38;;;7.80;99.90;;;;;;5036497;28;20060;-71
2021/10/23 03:36:44;;;;;;;18.40;6.88;;;7.90;99.90;;;;;;5034156;28;20460;-72
2021/10/23 03:39:12;;;;;;;11.98;5.63;;;7.80;99.90;;;;;;5035281;28;20090;-72
2021/10/23 03:41:40;;;;;;;14.95;6.07;;;7.80;99.90;;;;;;5034868;28;20265;-71
2021/10/23 03:44:07;;;;;;;13.57;5.18;;;7.80;99.90;;;;;;5036682;28;20053;-71
2021/10/23 03:46:35;;;;;;;14.80;5.95;;;7.90;99.90;;;;;;5035657;28;20315;-72
2021/10/23 03:49:02;;;;;;;16.35;5.85;;;7.80;99.90;;;;;;5035680;28;20505;-72
2021/10/23 03:51:29;;;;;;;12.05;5.60;;;7.80;99.90;;;;;;5034968;28;20084;-73
2021/10/23 03:53:56;;;;;;;12.68;5.32;;;7.80;99.90;;;;;;5036382;28;20057;-72
2021/10/23 03:56:24;;;;;;;13.80;6.25;;;7.80;99.90;;;;;;5034113;28;20060;-72
2021/10/23 03:58:51;;;;;;;13.25;6.82;;;7.80;99.90;;;;;;5036413;28;20053;-72
2021/10/23 04:01:18;;;;;;;15.45;7.00;;;7.70;99.90;;;;;;5035388;28;20057;-72
2021/10/23 04:03:45;;;;;;;10.70;6.13;;;7.80;99.90;;;;;;5035310;28;20094;-71
2021/10/23 04:06:13;;;;;;;13.02;5.40;;;7.80;99.90;;;;;;5035050;28;20084;-74
2021/10/23 04:08:41;;;;;;;14.07;6.53;;;7.80;99.90;;;;;;5035681;28;20126;-73
2021/10/23 04:11:08;;;;;;;15.20;6.20;;;7.70;99.90;;;;;;5035523;28;20049;-72
2021/10/23 04:13:36;;;;;;;10.45;5.50;;;7.70;99.90;;;;;;5035493;28;20460;-73
2021/10/23 04:16:04;;;;;;;11.07;5.43;;;7.60;99.90;;;;;;5038906;28;20060;-74
2021/10/23 04:18:30;;;;;;;14.65;5.82;;;7.50;99.90;;;;;;5039396;28;20451;-72
2021/10/23 04:20:58;;;;;;;13.77;5.85;;;7.50;99.90;;;;;;5038779;28;20052;-72
2021/10/23 04:23:24;;;;;;;14.20;6.18;;;7.50;99.90;;;;;;5038880;28;20052;-72
2021/10/23 04:25:51;;;;;;;11.90;5.90;;;7.40;99.90;;;;;;5039338;28;20098;-74
2021/10/23 04:28:19;;;;;;;23.08;7.40;;;7.20;99.90;;;;;;5039378;28;20056;-72
2021/10/23 04:30:47;;;;;;;16.42;6.30;;;7.10;99.90;;;;;;5039841;28;20476;-74
2021/10/23 04:33:14;;;;;;;13.30;6.47;;;7.10;99.90;;;;;;5039024;28;20076;-72
2021/10/23 04:35:41;;;;;;;19.10;8.18;;;7.10;99.90;;;;;;5038311;28;20048;-75
2021/10/23 04:38:08;;;;;;;20.30;8.20;;;7.00;99.90;;;;;;5038326;28;20084;-72
2021/10/23 04:40:37;;;;;;;21.33;8.43;;;6.90;99.90;;;;;;5038968;28;20509;-72
2021/10/23 04:43:04;;;;;;;19.33;7.20;;;6.70;99.90;;;;;;5038555;28;20288;-72
2021/10/23 04:45:31;;;;;;;16.40;7.35;;;6.70;99.90;;;;;;5039040;28;20382;-72
2021/10/23 04:48:00;;;;;;;17.65;7.13;;;6.70;99.90;;;;;;5039406;28;20110;-72
2021/10/23 04:50:27;;;;;;;14.80;7.20;;;6.70;99.90;;;;;;5038670;28;20053;-73
2021/10/23 04:52:54;;;;;;;13.18;7.10;;;6.60;99.90;;;;;;5039742;28;20053;-72
2021/10/23 04:55:21;;;;;;;18.98;8.40;;;6.60;99.90;;;;;;5038871;28;20474;-73
2021/10/23 04:57:48;;;;;;;19.00;7.70;;;6.40;99.90;;;;;;5038925;28;20045;-72
2021/10/23 05:00:15;;;;;;;22.45;7.97;;;6.40;99.90;;;;;;5039749;28;20065;-73
2021/10/23 05:02:42;;;;;;;21.08;8.50;;;6.30;99.90;;;;;;5039057;28;20053;-71
2021/10/23 05:05:11;;;;;;;15.93;7.25;;;6.40;99.90;;;;;;5040552;28;20067;-72
2021/10/23 05:07:38;;;;;;;22.45;8.07;;;6.30;99.90;;;;;;5041043;28;20110;-73
2021/10/23 05:10:06;;;;;;;16.60;7.53;;;6.30;99.90;;;;;;5040107;28;20049;-72
2021/10/23 05:12:33;;;;;;;19.80;7.00;;;6.30;99.90;;;;;;5039865;28;20111;-73
2021/10/23 05:15:00;;;;;;;20.85;8.20;;;6.20;99.90;;;;;;5038661;28;20053;-72
2021/10/23 05:17:27;;;;;;;16.52;7.95;;;6.10;99.90;;;;;;5039567;28;20053;-74
2021/10/23 05:19:54;;;;;;;15.82;6.85;;;6.00;99.90;;;;;;5038855;28;20560;-72
2021/10/23 05:22:23;;;;;;;17.25;7.60;;;5.90;99.90;;;;;;5038854;28;20566;-72
2021/10/23 05:24:50;;;;;;;19.42;7.65;;;5.80;99.90;;;;;;5038481;28;20103;-72
2021/10/23 05:27:18;;;;;;;17.83;8.00;;;5.70;99.90;;;;;;5038427;28;20151;-72
2021/10/23 05:29:45;;;;;;;18.95;7.70;;;5.70;99.90;;;;;;5039289;28;20057;-71
2021/10/23 05:32:12;;;;;;;18.17;8.10;;;5.70;99.90;;;;;;5038550;28;20103;-72
2021/10/23 05:34:39;;;;;;;17.90;7.82;;;5.70;99.90;;;;;;5038039;28;20056;-73
2021/10/23 05:37:05;;;;;;;16.67;7.80;;;5.60;99.90;;;;;;5038419;28;20402;-71
2021/10/23 05:39:34;;;;;;;21.20;7.70;;;5.60;99.90;;;;;;5037715;28;20567;-71
2021/10/23 05:42:01;;;;;;;25.40;9.03;;;5.50;99.90;;;;;;5038337;28;20112;-72
2021/10/23 05:44:28;;;;;;;20.67;8.20;;;5.40;99.90;;;;;;5037703;28;20045;-72
2021/10/23 05:46:55;;;;;;;19.77;8.30;;;5.40;99.90;;;;;;5037199;28;20045;-73
2021/10/23 05:49:23;;;;;;;20.98;7.55;;;5.40;99.90;;;;;;5037953;28;20061;-72
2021/10/23 05:51:50;;;;;;;20.33;8.57;;;5.40;99.90;;;;;;5038648;28;20100;-72
2021/10/23 05:54:17;;;;;;;22.27;10.43;;;5.30;99.90;;;;;;5038146;28;20091;-73
2021/10/23 05:56:46;;;;;;;17.53;7.63;;;5.40;99.90;;;;;;5038615;28;20049;-72
2021/10/23 05:59:14;;;;;;;23.03;8.23;;;5.50;99.90;;;;;;5039198;28;20057;-72
2021/10/23 06:01:44;;;;;;;26.63;8.87;;;5.60;99.90;;;;;;5039257;28;20056;-71
2021/10/23 06:04:11;;;;;;;19.87;9.90;;;5.60;99.90;;;;;;5039169;28;20083;-72
2021/10/23 06:06:39;;;;;;;21.63;8.65;;;5.50;99.90;;;;;;5037464;28;20269;-73
2021/10/23 06:09:06;;;;;;;18.70;9.97;;;5.50;99.90;;;;;;5039529;28;20052;-73
2021/10/23 06:11:34;;;;;;;23.77;9.47;;;5.40;99.90;;;;;;5037741;28;20049;-72
2021/10/23 06:14:04;;;;;;;22.10;10.98;;;5.30;99.90;;;;;;5038448;28;20154;-72
2021/10/23 06:16:31;;;;;;;23.37;10.47;;;5.30;99.90;;;;;;5037248;28;20104;-73
2021/10/23 06:18:58;;;;;;;21.90;10.47;;;5.30;99.90;;;;;;5037649;28;20076;-73
2021/10/23 06:21:25;;;;;;;27.70;9.97;;;5.30;99.90;;;;;;5038043;28;20178;-73
2021/10/23 06:23:52;;;;;;;25.80;11.60;;;5.30;99.90;;;;;;5037791;28;20053;-73
2021/10/23 06:26:19;;;;;;;22.37;10.03;;;5.40;99.90;;;;;;5037978;28;20084;-72
2021/10/23 06:28:46;;;;;;;17.27;9.80;;;5.40;99.90;;;;;;5039222;28;20056;-73
2021/10/23 06:31:14;;;;;;;21.93;9.13;;;5.50;99.90;;;;;;5038211;28;20064;-72
2021/10/23 06:33:41;;;;;;;21.00;9.07;;;5.50;99.90;;;;;;5036311;28;20565;-73
2021/10/23 06:36:08;;;;;;;19.25;8.70;;;5.60;99.90;;;;;;5036968;28;20080;-72
2021/10/23 06:38:35;;;;;;;20.87;8.10;;;5.60;99.90;;;;;;5036876;28;20048;-72
2021/10/23 06:41:02;;;;;;;18.67;8.25;;;5.70;99.90;;;;;;5038583;28;20111;-72
2021/10/23 06:43:29;;;;;;;18.15;7.70;;;5.70;99.90;;;;;;5037491;28;20623;-73
2021/10/23 06:45:56;;;;;;;19.65;7.75;;;5.90;99.90;;;;;;5037050;28;20060;-72
2021/10/23 06:48:24;;;;;;;19.33;7.53;;;5.80;99.90;;;;;;5038312;28;20049;-73
2021/10/23 06:50:51;;;;;;;15.25;7.10;;;5.90;99.90;;;;;;5036866;28;20492;-73
2021/10/23 06:53:18;;;;;;;24.88;9.45;;;5.90;99.90;;;;;;5037773;28;20053;-72
2021/10/23 06:55:45;;;;;;;22.83;8.88;;;5.90;99.90;;;;;;5036299;28;20048;-72
2021/10/23 06:58:12;;;;;;;17.92;8.23;;;6.00;99.90;;;;;;5037676;28;20045;-73
2021/10/23 07:00:39;;;;;;;15.68;7.10;;;6.10;99.90;;;;;;5036736;28;20134;-74
2021/10/23 07:03:06;;;;;;;16.55;7.47;;;6.10;99.90;;;;;;5036822;28;20053;-72
2021/10/23 07:05:34;;;;;;;12.48;5.70;;;6.20;99.90;;;;;;5037377;28;20084;-73
2021/10/23 07:08:01;;;;;;;13.32;5.47;;;6.30;99.90;;;;;;5036554;28;20088;-73
2021/10/23 07:10:29;;;;;;;12.23;5.40;;;6.40;99.90;;;;;;5036498;28;20060;-73
2021/10/23 07:12:56;;;;;;;17.10;5.90;;;6.50;99.90;;;;;;5036677;28;20076;-73
2021/10/23 07:15:23;;;;;;;10.43;5.00;;;6.50;99.90;;;;;;5034473;28;20126;-74
2021/10/23 07:17:50;;;;;;;17.80;5.78;;;6.60;99.90;;;;;;5036912;28;20099;-73
2021/10/23 07:20:17;;;;;;;14.52;5.03;;;6.70;99.90;;;;;;5038001;28;20076;-73
2021/10/23 07:22:45;;;;;;;16.27;4.53;;;6.80;99.90;;;;;;5036237;28;20452;-74
2021/10/23 07:25:12;;;;;;;11.43;3.72;;;6.90;99.90;;;;;;5035214;28;20049;-72
2021/10/23 07:27:39;;;;;;;14.35;4.63;;;6.90;99.90;;;;;;5034845;28;20063;-74
2021/10/23 07:30:09;;;;;;;11.68;3.97;;;7.10;99.90;;;;;;5036227;28;20118;-74
2021/10/23 07:32:36;;;;;;;13.27;3.60;;;7.10;99.90;;;;;;5034675;28;20910;-74
2021/10/23 07:35:04;;;;;;;16.42;4.03;;;7.10;99.90;;;;;;5037545;28;20049;-73
2021/10/23 07:37:31;;;;;;;11.77;3.35;;;7.20;99.90;;;;;;5038083;28;20048;-73
2021/10/23 07:39:59;;;;;;;13.40;3.70;;;7.30;99.90;;;;;;5037962;28;20048;-73
2021/10/23 07:42:27;;;;;;;9.50;3.40;;;7.30;99.90;;;;;;5037448;28;20056;-71
2021/10/23 07:44:54;;;;;;;12.50;4.18;;;7.40;99.90;;;;;;5037173;28;20582;-71
2021/10/23 07:47:22;;;;;;;12.60;3.65;;;7.60;99.90;;;;;;5035921;28;20057;-72
2021/10/23 07:49:49;;;;;;;10.38;3.65;;;7.70;99.90;;;;;;5034570;28;20110;-74
2021/10/23 07:52:17;;;;;;;9.52;3.33;;;8.20;99.90;;;;;;5030699;28;20045;-72
2021/10/23 07:54:44;;;;;;;11.48;3.47;;;8.50;99.90;;;;;;5034222;28;20049;-71
2021/10/23 07:57:13;;;;;;;12.25;3.60;;;9.00;99.90;;;;;;5033114;28;20080;-72
2021/10/23 07:59:40;;;;;;;12.20;2.97;;;8.90;99.90;;;;;;5031385;28;20150;-68
2021/10/23 08:02:07;;;;;;;11.85;2.80;;;8.80;99.90;;;;;;5030368;28;20080;-70
2021/10/23 08:04:34;;;;;;;11.00;2.97;;;8.90;99.90;;;;;;5030061;28;20809;-70
2021/10/23 08:07:03;;;;;;;11.35;3.53;;;9.00;99.90;;;;;;5029214;28;20110;-71
2021/10/23 08:09:32;;;;;;;11.75;3.13;;;9.20;99.90;;;;;;5029749;28;20539;-71
2021/10/23 08:11:59;;;;;;;9.73;3.33;;;9.60;99.90;;;;;;5030416;28;20156;-73
2021/10/23 08:14:28;;;;;;;9.85;2.75;;;9.80;99.90;;;;;;5032038;28;20045;-68
2021/10/23 08:16:55;;;;;;;9.07;2.50;;;12.50;99.90;;;;;;5031088;28;20056;-68
2021/10/23 08:19:22;;;;;;;6.95;2.47;;;13.60;99.90;;;;;;5031414;28;20080;-70
2021/10/23 08:21:50;;;;;;;9.45;3.28;;;15.60;99.90;;;;;;5030272;28;20041;-68
2021/10/23 08:24:17;;;;;;;6.90;2.90;;;14.00;99.90;;;;;;5030403;28;21166;-68
2021/10/23 08:26:44;;;;;;;10.32;2.95;;;15.60;99.90;;;;;;5026156;28;20135;-69
2021/10/23 08:29:11;;;;;;;6.40;2.20;;;15.90;99.90;;;;;;5025308;28;20575;-69
2021/10/23 08:31:40;;;;;;;10.32;3.10;;;15.00;99.90;;;;;;5029952;28;20045;-69
2021/10/23 08:34:09;;;;;;;8.63;2.83;;;16.40;99.90;;;;;;5031561;28;20052;-69
2021/10/23 08:36:36;;;;;;;10.25;2.97;;;14.70;99.90;;;;;;5031270;28;20103;-68
2021/10/23 08:39:03;;;;;;;10.27;2.60;;;14.80;99.90;;;;;;5027626;28;20555;-68
2021/10/23 08:41:31;;;;;;;9.98;2.80;;;16.00;99.90;;;;;;5027212;28;20053;-68
2021/10/23 08:44:05;;;;;;;10.00;2.50;;;17.50;99.90;;;;;;5027324;28;20085;-68
2021/10/23 08:46:36;;;;;;;11.00;2.53;;;18.80;99.90;;;;;;5028625;28;20535;-68
2021/10/23 08:49:06;;;;;;;7.60;2.40;;;19.20;99.90;;;;;;5028002;28;20041;-68
2021/10/23 08:51:34;;;;;;;8.07;2.30;;;19.00;99.90;;;;;;5027945;28;20056;-68
2021/10/23 08:54:02;;;;;;;9.98;2.55;;;20.50;99.90;;;;;;5031559;28;20040;-68
2021/10/23 08:56:29;;;;;;;9.23;2.45;;;20.70;99.90;;;;;;5027331;28;20045;-70
2021/10/23 08:58:56;;;;;;;10.05;2.42;;;19.80;99.90;;;;;;5026370;28;20060;-69
2021/10/23 09:01:23;;;;;;;7.45;1.95;;;19.80;99.90;;;;;;5032928;28;20135;-69
2021/10/23 09:03:52;;;;;;;10.45;2.22;;;20.70;99.90;;;;;;5037075;28;20053;-69
2021/10/23 09:06:32;;;;;;;8.85;2.35;;;20.20;99.90;;;;;;5035976;28;20045;-69
2021/10/23 09:09:05;;;;;;;8.63;2.22;;;19.60;99.90;;;;;;5035520;28;20053;-68
2021/10/23 09:11:35;;;;;;;9.35;2.75;;;20.60;99.90;;;;;;5036498;28;20049;-68
2021/10/23 09:14:24;;;;;;;12.45;2.90;;;17.70;99.90;;;;;;5036082;28;20456;-68
2021/10/23 09:17:03;;;;;;;8.77;2.95;;;16.40;99.90;;;;;;5035885;28;20069;-68
2021/10/23 09:19:38;;;;;;;10.82;2.60;;;18.40;99.90;;;;;;5036457;28;20088;-68
2021/10/23 09:22:20;;;;;;;6.53;2.28;;;15.70;99.90;;;;;;5036314;28;20133;-69
2021/10/23 09:24:47;;;;;;;11.05;2.85;;;15.40;99.90;;;;;;5036576;28;20057;-68
2021/10/23 09:27:15;;;;;;;10.32;2.65;;;17.50;99.90;;;;;;5034083;28;20444;-69
2021/10/23 09:29:42;;;;;;;10.02;2.50;;;17.90;99.90;;;;;;5034589;28;20045;-68
2021/10/23 09:32:12;;;;;;;9.52;2.75;;;18.50;99.90;;;;;;5034717;28;20631;-69
2021/10/23 09:34:39;;;;;;;6.90;2.47;;;19.80;99.90;;;;;;5033988;28;20177;-69
2021/10/23 09:37:09;;;;;;;8.73;2.45;;;20.00;99.90;;;;;;5034647;28;20530;-69
2021/10/23 09:39:36;;;;;;;7.63;2.10;;;20.30;99.90;;;;;;5035516;28;20060;-68
2021/10/23 09:42:08;;;;;;;9.57;2.67;;;17.60;99.90;;;;;;5034082;28;20056;-69
2021/10/23 09:44:37;;;;;;;9.13;2.70;;;19.10;99.90;;;;;;5033604;28;20587;-69
2021/10/23 09:47:04;;;;;;;10.07;2.38;;;20.00;99.90;;;;;;5034395;28;20087;-69
2021/10/23 09:49:31;;;;;;;10.68;2.50;;;20.70;99.90;;;;;;5034449;28;20148;-69
2021/10/23 09:52:06;;;;;;;10.13;2.55;;;18.00;99.90;;;;;;5035352;28;20045;-69
2021/10/23 09:54:35;;;;;;;10.48;2.75;;;16.90;99.90;;;;;;5035624;28;20080;-69
2021/10/23 09:57:10;;;;;;;7.60;1.92;;;15.90;99.90;;;;;;5035221;28;20387;-68
2021/10/23 09:59:39;;;;;;;6.72;2.20;;;16.90;99.90;;;;;;5035711;28;20053;-69
2021/10/23 10:02:07;;;;;;;8.43;2.28;;;20.10;99.90;;;;;;5034956;28;20053;-69
2021/10/23 10:04:35;;;;;;;8.13;1.73;;;20.30;99.90;;;;;;5034622;28;20056;-69
2021/10/23 10:07:04;;;;;;;8.32;2.38;;;22.30;99.90;;;;;;5034075;28;20061;-69
2021/10/23 10:09:31;;;;;;;8.55;2.25;;;20.70;99.00;;;;;;5035002;28;20056;-69
2021/10/23 10:12:00;;;;;;;6.65;1.85;;;22.60;98.80;;;;;;5034498;28;20458;-69
2021/10/23 10:14:31;;;;;;;9.07;2.30;;;23.80;96.50;;;;;;5033063;28;20571;-68
2021/10/23 10:17:00;;;;;;;8.60;2.00;;;23.20;95.60;;;;;;5033742;28;20409;-68
2021/10/23 10:19:27;;;;;;;9.93;2.50;;;23.30;96.20;;;;;;5034158;28;20063;-68
2021/10/23 10:21:56;;;;;;;8.63;1.90;;;22.80;95.00;;;;;;5034168;28;20422;-69
2021/10/23 10:24:24;;;;;;;9.07;1.92;;;23.90;94.50;;;;;;5034351;28;20072;-69
2021/10/23 10:27:02;;;;;;;7.18;2.20;;;21.40;94.50;;;;;;5033436;28;20465;-68
2021/10/23 10:29:45;;;;;;;9.32;2.20;;;15.90;99.90;;;;;;5034972;28;20135;-68
2021/10/23 10:32:22;;;;;;;10.90;2.08;;;14.30;99.90;;;;;;5034363;28;20055;-68
2021/10/23 10:44:16;;;;;;;7.88;1.83;;;24.90;92.90;;;;;;5035191;28;20122;-69
2021/10/23 10:47:11;;;;;;;8.88;2.03;;;26.00;87.60;;;;;;5032072;28;20513;-69
2021/10/23 10:49:46;;;;;;;7.90;1.70;;;26.50;87.00;;;;;;5032476;28;20046;-69
2021/10/23 10:53:04;;;;;;;10.18;2.00;;;24.70;88.10;;;;;;5032557;28;20057;-69
2021/10/23 10:55:40;;;;;;;6.28;2.00;;;25.10;87.60;;;;;;5025353;28;20064;-69
2021/10/23 10:58:10;;;;;;;7.63;1.65;;;26.80;88.70;;;;;;5029070;28;20497;-68
2021/10/23 11:01:10;;;;;;;8.45;1.90;;;25.90;87.30;;;;;;5029725;28;20764;-68
2021/10/23 11:03:44;;;;;;;9.90;1.80;;;25.20;85.40;;;;;;5025494;28;20048;-68
2021/10/23 11:06:45;;;;;;;11.30;1.83;;;22.00;90.40;;;;;;5029657;28;20523;-68
2021/10/23 11:09:42;;;;;;;6.63;1.55;;;23.60;91.40;;;;;;5029107;28;20084;-68
2021/10/23 11:12:30;;;;;;;5.75;1.35;;;20.60;92.70;;;;;;5032767;28;20057;-68
2021/10/23 11:15:01;;;;;;;6.78;1.80;;;19.20;93.20;;;;;;5029701;28;20115;-68
2021/10/23 11:17:28;;;;;;;5.40;1.73;;;18.80;93.30;;;;;;5030850;28;20141;-68
2021/10/23 11:19:59;;;;;;;10.13;1.73;;;18.70;93.40;;;;;;5030893;28;20590;-68
2021/10/23 11:22:30;;;;;;;8.68;1.77;;;18.50;93.50;;;;;;5029881;28;20044;-68
2021/10/23 11:25:03;;;;;;;8.65;2.38;;;18.50;94.60;;;;;;5027994;28;20063;-68
2021/10/23 11:27:37;;;;;;;6.38;1.45;;;22.40;92.40;;;;;;5028218;28;20063;-68
2021/10/23 11:30:22;;;;;;;9.63;2.00;;;24.10;91.30;;;;;;5030011;28;20076;-68
2021/10/23 11:32:56;;;;;;;9.15;2.15;;;19.00;94.70;;;;;;5029445;28;20056;-68
2021/10/23 11:35:36;;;;;;;10.27;2.53;;;18.00;95.20;;;;;;5030510;28;20057;-68
2021/10/23 11:38:05;;;;;;;6.53;1.40;;;16.30;96.70;;;;;;5030517;28;20142;-68
2021/10/23 11:40:32;;;;;;;9.50;2.03;;;15.10;97.90;;;;;;5029816;28;20498;-68
2021/10/23 11:42:59;;;;;;;9.23;2.05;;;14.10;99.80;;;;;;5028644;28;20668;-68
2021/10/23 11:45:27;;;;;;;9.15;2.05;;;13.30;99.80;;;;;;5028477;28;20049;-68
2021/10/23 11:47:55;;;;;;;7.28;1.67;;;13.10;99.90;;;;;;5028286;28;20053;-68
2021/10/23 11:50:25;;;;;;;8.32;1.50;;;12.80;99.90;;;;;;5031016;28;20057;-68
2021/10/23 11:52:56;;;;;;;13.05;2.08;;;12.50;99.90;;;;;;5032386;28;20061;-68
2021/10/23 11:55:31;;;;;;;8.82;1.58;;;12.60;99.90;;;;;;5031411;28;20076;-68
2021/10/23 11:58:02;;;;;;;11.55;2.25;;;12.80;99.90;;;;;;5030223;28;20084;-69
2021/10/23 12:00:38;;;;;;;7.20;1.60;;;13.20;99.90;;;;;;5031616;28;20389;-68
2021/10/23 12:03:08;;;;;;;8.60;1.52;;;17.00;99.90;;;;;;5032101;28;20468;-69
2021/10/23 12:05:46;;;;;;;9.65;1.80;;;21.50;97.40;;;;;;5031691;28;20068;-68
2021/10/23 12:08:28;;;;;;;6.45;1.52;;;23.40;94.00;;;;;;5028751;28;20053;-69
2021/10/23 12:11:03;;;;;;;13.35;2.35;;;24.60;92.40;;;;;;5028352;28;20053;-69
2021/10/23 12:13:31;;;;;;;6.30;1.30;;;24.80;93.00;;;;;;5028325;28;20320;-69
2021/10/23 12:16:05;;;;;;;5.10;1.73;;;20.40;93.50;;;;;;5029343;28;20041;-68
2021/10/23 12:18:34;;;;;;;10.90;2.10;;;18.40;98.00;;;;;;5029127;28;20045;-69
2021/10/23 12:21:12;;;;;;;8.60;2.15;;;16.70;98.60;;;;;;5027779;28;20186;-68
2021/10/23 12:23:50;;;;;;;6.22;1.95;;;15.80;99.90;;;;;;5027540;28;20048;-69
2021/10/23 12:26:19;;;;;;;10.02;2.25;;;15.10;99.30;;;;;;5032901;28;20184;-72
2021/10/23 12:29:01;;;;;;;9.40;2.15;;;14.90;99.90;;;;;;5032207;28;20052;-68
2021/10/23 12:31:49;;;;;;;11.07;2.00;;;14.30;99.90;;;;;;5031702;28;20102;-69
2021/10/23 12:34:16;;;;;;;10.95;2.08;;;14.40;99.90;;;;;;5027663;28;20063;-69
2021/10/23 12:36:50;;;;;;;5.40;1.55;;;14.10;99.90;;;;;;5032944;28;20049;-68
2021/10/23 12:39:19;;;;;;;6.20;1.33;;;13.80;99.90;;;;;;5033080;28;20487;-69
2021/10/23 12:41:47;;;;;;;8.32;2.38;;;13.60;99.90;;;;;;5034763;28;20080;-68
2021/10/23 12:44:16;;;;;;;9.82;1.73;;;13.50;99.90;;;;;;5036085;28;20442;-68
2021/10/23 12:46:43;;;;;;;8.85;2.25;;;13.90;99.90;;;;;;5035649;28;20060;-68
2021/10/23 12:49:10;;;;;;;9.07;1.90;;;13.40;99.90;;;;;;5036433;28;20481;-68
2021/10/23 12:51:37;;;;;;;10.63;2.15;;;13.30;99.90;;;;;;5035978;28;20076;-68
2021/10/23 12:54:04;;;;;;;7.80;2.80;;;13.30;99.90;;;;;;5035330;28;20118;-69
2021/10/23 12:56:33;;;;;;;6.60;1.70;;;13.80;99.90;;;;;;5036055;28;20061;-68
2021/10/23 12:59:00;;;;;;;11.30;2.40;;;13.80;99.90;;;;;;5036483;28;20464;-69
2021/10/23 13:01:27;;;;;;;10.25;2.58;;;13.90;99.90;;;;;;5034947;28;20507;-68
2021/10/23 13:03:55;;;;;;;6.90;1.75;;;13.40;99.90;;;;;;5036094;28;20095;-69
2021/10/23 13:06:22;;;;;;;12.23;2.22;;;14.80;99.90;;;;;;5035500;28;20052;-68